Time;durP1;ratioP1;P1;durP2;ratioP2;P2;SDS_P1;SDS_P2;PMS_P1;PMS_P2;Temp;Humidity;BMP_temperature;BMP_pressure;BME280_temperature;BME280_humidity;BME280_pressure;Samples;Min_cycle;Max_cycle;Signal;HPM_P1;HPM_P2
2022/01/21 00:01:24;;;;;;;4.78;2.70;;;;;;;;;;4994085;28;20564;-79
2022/01/21 00:03:50;;;;;;;11.85;3.92;;;;;;;;;;4993343;28;20088;-79
2022/01/21 00:06:16;;;;;;;7.78;2.78;;;;;;;;;;4993950;28;20022;-79
2022/01/21 00:08:43;;;;;;;9.25;3.45;;;;;;;;;;4992719;28;20511;-78
2022/01/21 00:11:10;;;;;;;7.70;3.20;;;;;;;;;;4994328;28;20369;-79
2022/01/21 00:13:36;;;;;;;11.70;3.28;;;;;;;;;;4995822;28;20026;-79
2022/01/21 00:16:06;;;;;;;8.65;2.78;;;;;;;;;;4998199;28;20575;-79
2022/01/21 00:18:36;;;;;;;6.85;3.13;;;;;;;;;;4998367;28;20439;-79
2022/01/21 00:31:59;;;;;;;6.35;2.72;;;;;;;;;;4997918;28;20028;-79
2022/01/21 00:34:25;;;;;;;8.38;2.97;;;;;;;;;;4998027;28;20454;-79
2022/01/21 00:36:51;;;;;;;10.50;2.80;;;;;;;;;;4997994;28;20042;-78
2022/01/21 00:39:20;;;;;;;6.90;3.22;;;;;;;;;;4997519;28;20049;-79
2022/01/21 00:41:52;;;;;;;10.02;3.55;;;;;;;;;;4998613;28;20052;-79
2022/01/21 00:44:17;;;;;;;10.90;3.92;;;;;;;;;;4997673;28;20038;-79
2022/01/21 00:46:43;;;;;;;9.27;3.65;;;;;;;;;;4998060;28;20026;-80
2022/01/21 00:49:08;;;;;;;12.63;4.70;;;;;;;;;;4996538;28;20116;-77
2022/01/21 00:51:33;;;;;;;14.15;5.20;;;;;;;;;;4995548;28;20022;-77
2022/01/21 00:53:58;;;;;;;10.70;4.55;;;;;;;;;;4995083;28;20045;-78
2022/01/21 00:56:24;;;;;;;10.10;4.15;;;;;;;;;;4995512;28;20093;-78
2022/01/21 00:58:49;;;;;;;9.25;4.07;;;;;;;;;;4995273;28;20032;-77
2022/01/21 01:01:14;;;;;;;9.05;3.60;;;;;;;;;;4994825;28;20029;-77
2022/01/21 01:03:40;;;;;;;8.50;2.20;;;;;;;;;;4995265;28;20085;-77
2022/01/21 01:06:05;;;;;;;4.80;1.83;;;;;;;;;;4995163;28;20476;-77
2022/01/21 01:08:30;;;;;;;9.25;2.40;;;;;;;;;;4995129;28;20029;-77
2022/01/21 01:21:34;;;;;;;7.57;2.25;;;;;;;;;;4995478;28;20110;-77
2022/01/21 01:29:18;;;;;;;8.52;2.15;;;;;;;;;;4994377;28;20150;-77
2022/01/21 01:31:43;;;;;;;4.45;1.80;;;;;;;;;;4995146;28;20058;-77
2022/01/21 01:34:09;;;;;;;5.18;1.70;;;;;;;;;;4995438;28;20030;-77
2022/01/21 01:36:34;;;;;;;8.57;2.10;;;;;;;;;;4994190;28;20022;-77
2022/01/21 01:41:40;;;;;;;9.18;2.15;;;;;;;;;;4992567;28;20530;-77
2022/01/21 01:49:36;;;;;;;8.30;2.33;;;;;;;;;;4994423;28;20154;-77
2022/01/21 01:52:09;;;;;;;9.32;3.42;;;;;;;;;;4997657;28;20283;-77
2022/01/21 01:54:37;;;;;;;8.67;3.87;;;;;;;;;;4993926;28;20026;-77
2022/01/21 01:57:03;;;;;;;9.43;3.20;;;;;;;;;;4994095;28;20267;-77
2022/01/21 01:59:28;;;;;;;9.80;3.60;;;;;;;;;;4993955;28;20031;-77
2022/01/21 02:01:57;;;;;;;8.32;2.80;;;;;;;;;;4999660;28;20029;-77
2022/01/21 02:04:23;;;;;;;7.22;3.03;;;;;;;;;;5002235;28;20088;-77
2022/01/21 02:06:48;;;;;;;8.95;3.22;;;;;;;;;;4992748;28;20026;-77
2022/01/21 02:09:14;;;;;;;8.75;2.63;;;;;;;;;;4992087;28;20026;-77
2022/01/21 02:11:40;;;;;;;8.73;2.28;;;;;;;;;;4992725;28;20031;-79
2022/01/21 02:14:09;;;;;;;8.43;2.05;;;;;;;;;;4994070;28;20029;-78
2022/01/21 02:16:42;;;;;;;8.90;1.90;;;;;;;;;;4992242;28;20367;-77
2022/01/21 02:21:51;;;;;;;4.82;1.70;;;;;;;;;;4993354;28;19921;-78
2022/01/21 02:24:30;;;;;;;8.35;2.05;;;;;;;;;;4994067;28;20026;-79
2022/01/21 02:26:55;;;;;;;6.05;1.80;;;;;;;;;;4991374;28;20022;-77
2022/01/21 02:29:31;;;;;;;6.68;1.55;;;;;;;;;;4993835;28;20026;-77
2022/01/21 02:31:58;;;;;;;6.22;1.90;;;;;;;;;;4991559;28;20495;-78
2022/01/21 02:34:25;;;;;;;5.22;1.60;;;;;;;;;;4993435;28;20041;-77
2022/01/21 02:36:50;;;;;;;4.47;1.42;;;;;;;;;;4991637;28;20026;-76
2022/01/21 02:39:16;;;;;;;4.95;1.60;;;;;;;;;;4993750;28;20033;-77
2022/01/21 02:41:41;;;;;;;4.82;1.40;;;;;;;;;;4992742;28;20037;-77
2022/01/21 02:44:13;;;;;;;4.80;2.03;;;;;;;;;;4993748;28;20090;-78
2022/01/21 02:46:40;;;;;;;4.10;1.50;;;;;;;;;;4992601;28;20580;-79
2022/01/21 02:49:06;;;;;;;5.80;1.80;;;;;;;;;;4991639;28;20122;-77
2022/01/21 02:51:31;;;;;;;3.33;1.55;;;;;;;;;;4993068;28;20058;-79
2022/01/21 02:56:22;;;;;;;6.43;1.83;;;;;;;;;;4992689;28;20033;-79
2022/01/21 02:58:47;;;;;;;6.43;1.60;;;;;;;;;;4994463;28;20543;-79
2022/01/21 03:01:14;;;;;;;6.35;1.60;;;;;;;;;;5026438;23;20050;-74
2022/01/21 03:03:41;;;;;;;5.10;2.40;;;;;;;;;;5010584;28;20034;-73
2022/01/21 03:06:06;;;;;;;9.23;2.03;;;;;;;;;;5009776;28;20515;-73
2022/01/21 03:08:32;;;;;;;9.73;2.58;;;;;;;;;;5010371;28;20034;-73
2022/01/21 03:10:57;;;;;;;5.45;1.67;;;;;;;;;;5009851;28;20040;-73
2022/01/21 03:13:23;;;;;;;4.90;1.92;;;;;;;;;;5010665;28;20100;-74
2022/01/21 03:15:50;;;;;;;8.02;1.90;;;;;;;;;;5009600;28;20641;-73
2022/01/21 03:18:15;;;;;;;4.85;1.92;;;;;;;;;;5010148;28;20026;-73
2022/01/21 03:20:41;;;;;;;4.47;1.88;;;;;;;;;;5009637;28;20106;-74
2022/01/21 03:23:08;;;;;;;6.57;2.20;;;;;;;;;;5010169;28;20037;-74
2022/01/21 03:25:34;;;;;;;5.72;2.35;;;;;;;;;;5009477;28;20026;-74
2022/01/21 03:27:59;;;;;;;6.50;2.20;;;;;;;;;;5010473;28;20550;-73
2022/01/21 03:30:25;;;;;;;9.02;2.50;;;;;;;;;;5010137;28;20122;-73
2022/01/21 03:32:50;;;;;;;3.72;2.03;;;;;;;;;;5009600;28;20048;-74
2022/01/21 03:35:15;;;;;;;6.50;2.20;;;;;;;;;;5009859;28;20053;-74
2022/01/21 03:37:40;;;;;;;6.70;1.90;;;;;;;;;;5009460;28;20040;-73
2022/01/21 03:40:06;;;;;;;6.85;2.40;;;;;;;;;;5009983;28;20030;-73
2022/01/21 03:42:32;;;;;;;5.53;2.05;;;;;;;;;;5009662;28;20029;-74
2022/01/21 03:44:57;;;;;;;5.70;2.03;;;;;;;;;;5009958;28;20036;-73
2022/01/21 03:47:22;;;;;;;10.43;2.55;;;;;;;;;;5009236;28;20022;-74
2022/01/21 03:49:57;;;;;;;5.97;2.45;;;;;;;;;;5009697;28;20605;-73
2022/01/21 03:52:22;;;;;;;4.82;2.00;;;;;;;;;;5009399;28;20026;-74
2022/01/21 03:54:48;;;;;;;7.80;2.45;;;;;;;;;;5009747;28;20331;-74
2022/01/21 03:57:13;;;;;;;7.70;2.28;;;;;;;;;;5009419;28;20271;-74
2022/01/21 03:59:38;;;;;;;7.05;2.30;;;;;;;;;;5009552;28;20112;-74
2022/01/21 04:02:06;;;;;;;5.03;2.20;;;;;;;;;;5009319;28;20075;-74
2022/01/21 04:04:31;;;;;;;8.10;2.30;;;;;;;;;;5009537;28;20037;-74
2022/01/21 04:06:56;;;;;;;9.07;2.33;;;;;;;;;;5008974;28;20034;-73
2022/01/21 04:09:22;;;;;;;7.30;2.40;;;;;;;;;;5009688;28;20054;-74
2022/01/21 04:11:47;;;;;;;6.57;2.50;;;;;;;;;;5009568;28;20029;-73
2022/01/21 04:14:13;;;;;;;6.20;2.42;;;;;;;;;;5009625;28;20033;-73
2022/01/21 04:16:38;;;;;;;7.07;2.60;;;;;;;;;;5009359;28;20026;-74
2022/01/21 04:19:03;;;;;;;8.23;2.30;;;;;;;;;;5009550;28;20101;-73
2022/01/21 04:21:29;;;;;;;8.43;2.63;;;;;;;;;;5009032;28;20480;-73
2022/01/21 04:23:54;;;;;;;8.82;3.45;;;;;;;;;;5009771;28;20032;-73
2022/01/21 04:26:20;;;;;;;5.88;2.60;;;;;;;;;;5009025;28;20041;-74
2022/01/21 04:28:45;;;;;;;11.85;5.93;;;;;;;;;;5009464;28;20048;-73
2022/01/21 04:31:10;;;;;;;26.92;13.23;;;;;;;;;;5009295;28;20057;-74
2022/01/21 04:33:35;;;;;;;9.88;3.60;;;;;;;;;;5009273;28;20022;-74
2022/01/21 04:36:01;;;;;;;9.77;4.90;;;;;;;;;;5009139;28;20056;-73
2022/01/21 04:38:26;;;;;;;7.15;3.67;;;;;;;;;;5008863;28;20189;-73
2022/01/21 04:49:08;;;;;;;9.35;3.30;;;;;;;;;;5009328;28;20036;-74
2022/01/21 04:51:40;;;;;;;9.25;3.47;;;;;;;;;;5009085;28;20029;-74
2022/01/21 04:54:06;;;;;;;10.20;5.90;;;;;;;;;;5009870;28;20097;-74
2022/01/21 04:56:32;;;;;;;5.13;3.20;;;;;;;;;;5008612;28;20132;-74
2022/01/21 04:58:57;;;;;;;5.80;3.30;;;;;;;;;;5009616;28;20477;-74
2022/01/21 05:01:23;;;;;;;7.35;3.10;;;;;;;;;;5011955;28;20029;-74
2022/01/21 05:03:49;;;;;;;5.90;2.78;;;;;;;;;;5012310;28;20022;-74
2022/01/21 05:06:15;;;;;;;6.25;2.45;;;;;;;;;;5012538;28;20462;-74
2022/01/21 05:08:46;;;;;;;8.50;2.78;;;;;;;;;;5012629;28;20034;-74
2022/01/21 05:11:13;;;;;;;4.95;2.60;;;;;;;;;;5012650;28;20026;-73
2022/01/21 05:13:43;;;;;;;5.15;2.47;;;;;;;;;;5012032;28;20033;-73
2022/01/21 05:16:28;;;;;;;8.48;2.40;;;;;;;;;;5011058;28;20018;-74
2022/01/21 05:18:58;;;;;;;8.65;2.58;;;;;;;;;;5012078;28;20088;-74
2022/01/21 05:21:24;;;;;;;9.18;2.80;;;;;;;;;;5012699;28;20025;-74
2022/01/21 05:23:49;;;;;;;7.20;2.60;;;;;;;;;;5012014;28;20030;-73
2022/01/21 05:26:14;;;;;;;6.95;2.50;;;;;;;;;;5012133;28;20038;-74
2022/01/21 05:28:40;;;;;;;8.73;2.47;;;;;;;;;;5012029;28;20044;-74
2022/01/21 05:31:05;;;;;;;11.30;2.55;;;;;;;;;;5012265;28;20030;-73
2022/01/21 05:33:30;;;;;;;4.95;2.38;;;;;;;;;;5012158;28;20033;-74
2022/01/21 05:35:56;;;;;;;6.57;2.25;;;;;;;;;;5012052;28;20505;-73
2022/01/21 05:38:21;;;;;;;8.48;2.65;;;;;;;;;;5011700;28;20033;-74
2022/01/21 05:40:47;;;;;;;7.22;3.80;;;;;;;;;;5012032;28;20064;-74
2022/01/21 05:43:13;;;;;;;7.47;2.83;;;;;;;;;;5011631;28;20022;-74
2022/01/21 05:48:23;;;;;;;4.95;2.38;;;;;;;;;;5011481;28;20506;-74
2022/01/21 05:50:48;;;;;;;10.70;3.35;;;;;;;;;;5011989;28;20029;-74
2022/01/21 05:53:14;;;;;;;10.55;3.53;;;;;;;;;;5011410;28;20041;-73
2022/01/21 05:55:42;;;;;;;7.55;3.00;;;;;;;;;;5011739;28;20033;-73
2022/01/21 05:58:09;;;;;;;6.40;3.00;;;;;;;;;;5011255;28;20037;-74
2022/01/21 06:00:36;;;;;;;9.35;3.40;;;;;;;;;;5011702;28;20037;-73
2022/01/21 06:03:06;;;;;;;10.25;3.67;;;;;;;;;;5011123;28;20026;-73
2022/01/21 06:05:33;;;;;;;8.90;2.80;;;;;;;;;;5011463;28;20634;-73
2022/01/21 06:08:00;;;;;;;8.80;2.50;;;;;;;;;;5011089;28;20042;-73
2022/01/21 06:10:26;;;;;;;8.75;3.00;;;;;;;;;;5011727;28;20541;-74
2022/01/21 06:12:51;;;;;;;8.85;3.10;;;;;;;;;;5010943;28;20108;-74
2022/01/21 06:15:16;;;;;;;8.50;2.45;;;;;;;;;;5011577;28;20030;-74
2022/01/21 06:17:42;;;;;;;7.57;2.35;;;;;;;;;;5011096;28;20025;-73
2022/01/21 06:20:08;;;;;;;10.50;3.35;;;;;;;;;;5011812;28;20138;-73
2022/01/21 06:22:33;;;;;;;11.85;3.90;;;;;;;;;;5010938;28;20037;-73
2022/01/21 06:24:59;;;;;;;10.73;4.97;;;;;;;;;;5011060;28;20034;-73
2022/01/21 06:27:27;;;;;;;7.43;3.42;;;;;;;;;;5011568;28;20036;-73
2022/01/21 06:29:55;;;;;;;9.13;3.33;;;;;;;;;;5010804;28;20536;-74
2022/01/21 06:32:21;;;;;;;8.55;2.85;;;;;;;;;;5011094;28;20530;-73
2022/01/21 06:34:46;;;;;;;4.75;2.65;;;;;;;;;;5010148;28;20030;-73
2022/01/21 06:37:12;;;;;;;7.63;3.03;;;;;;;;;;5009630;28;20053;-73
2022/01/21 06:39:37;;;;;;;8.73;2.95;;;;;;;;;;5010283;28;20474;-73
2022/01/21 06:42:03;;;;;;;12.18;3.20;;;;;;;;;;5010893;28;20033;-73
2022/01/21 06:44:28;;;;;;;9.32;2.97;;;;;;;;;;5010221;28;20533;-73
2022/01/21 06:46:53;;;;;;;12.68;6.00;;;;;;;;;;5010807;28;20057;-73
2022/01/21 06:49:19;;;;;;;18.60;8.32;;;;;;;;;;5010207;28;20030;-73
2022/01/21 06:51:44;;;;;;;10.98;4.70;;;;;;;;;;5010664;28;20829;-73
2022/01/21 06:54:10;;;;;;;11.05;5.70;;;;;;;;;;5010140;28;20030;-74
2022/01/21 06:56:35;;;;;;;12.00;3.78;;;;;;;;;;5010567;28;20022;-73
2022/01/21 06:59:01;;;;;;;6.43;2.45;;;;;;;;;;5010105;28;20025;-73
2022/01/21 07:01:26;;;;;;;9.82;3.17;;;;;;;;;;5010837;28;20029;-73
2022/01/21 07:03:51;;;;;;;7.65;3.25;;;;;;;;;;5009226;28;20022;-73
2022/01/21 07:06:16;;;;;;;7.90;3.03;;;;;;;;;;5008866;28;20117;-74
2022/01/21 07:08:42;;;;;;;10.63;3.65;;;;;;;;;;5003763;28;20030;-74
2022/01/21 07:11:07;;;;;;;8.80;3.78;;;;;;;;;;4989533;28;20057;-74
2022/01/21 07:13:34;;;;;;;8.07;3.35;;;;;;;;;;5006222;28;20049;-75
2022/01/21 07:15:59;;;;;;;8.23;3.72;;;;;;;;;;5006467;28;20210;-74
2022/01/21 07:18:25;;;;;;;11.88;4.15;;;;;;;;;;5005862;28;20022;-74
2022/01/21 07:20:50;;;;;;;13.63;3.72;;;;;;;;;;5006588;28;20025;-74
2022/01/21 07:23:15;;;;;;;13.45;5.07;;;;;;;;;;5005932;28;20022;-74
2022/01/21 07:25:40;;;;;;;12.30;4.40;;;;;;;;;;5005190;28;20400;-74
2022/01/21 07:28:06;;;;;;;11.48;4.88;;;;;;;;;;5006986;28;20018;-74
2022/01/21 07:30:31;;;;;;;12.38;4.25;;;;;;;;;;5005523;28;20076;-74
2022/01/21 07:32:57;;;;;;;11.20;3.92;;;;;;;;;;5006858;28;20037;-74
2022/01/21 07:35:23;;;;;;;11.23;4.20;;;;;;;;;;5005642;28;20537;-74
2022/01/21 07:37:48;;;;;;;17.08;4.65;;;;;;;;;;5006122;28;20036;-74
2022/01/21 07:40:14;;;;;;;9.77;4.05;;;;;;;;;;5006297;28;20060;-74
2022/01/21 07:42:39;;;;;;;11.32;3.88;;;;;;;;;;5006031;28;20018;-74
2022/01/21 07:45:05;;;;;;;10.20;4.30;;;;;;;;;;5005839;28;20261;-74
2022/01/21 07:47:31;;;;;;;13.32;4.25;;;;;;;;;;5007117;28;20184;-74
2022/01/21 07:49:56;;;;;;;9.70;4.35;;;;;;;;;;5005009;28;20523;-73
2022/01/21 07:52:22;;;;;;;11.48;5.07;;;;;;;;;;5006337;28;20395;-73
2022/01/21 07:54:47;;;;;;;18.33;5.78;;;;;;;;;;5003874;28;20036;-73
2022/01/21 07:57:12;;;;;;;13.85;5.30;;;;;;;;;;5006116;28;20121;-74
2022/01/21 07:59:38;;;;;;;9.48;5.10;;;;;;;;;;5005636;28;20449;-73
2022/01/21 08:02:04;;;;;;;10.27;5.45;;;;;;;;;;5006258;28;20476;-74
2022/01/21 08:04:30;;;;;;;13.85;5.60;;;;;;;;;;5005562;28;20040;-74
2022/01/21 08:06:55;;;;;;;14.75;6.25;;;;;;;;;;5005817;28;20026;-74
2022/01/21 08:09:24;;;;;;;15.25;7.90;;;;;;;;;;5005423;28;20272;-73
2022/01/21 08:11:53;;;;;;;24.10;10.88;;;;;;;;;;5006148;28;20088;-74
2022/01/21 08:14:20;;;;;;;67.45;28.30;;;;;;;;;;5004353;28;20320;-73
2022/01/21 08:16:45;;;;;;;20.67;8.65;;;;;;;;;;5001931;28;20102;-74
2022/01/21 08:19:11;;;;;;;11.23;6.68;;;;;;;;;;5000748;28;20122;-73
2022/01/21 08:21:36;;;;;;;15.27;6.13;;;;;;;;;;4990103;28;20511;-74
2022/01/21 08:24:03;;;;;;;10.90;4.40;;;;;;;;;;4994598;28;20021;-73
2022/01/21 08:26:29;;;;;;;13.05;4.70;;;;;;;;;;5009081;28;20026;-73
2022/01/21 08:28:55;;;;;;;10.27;4.97;;;;;;;;;;5008746;28;20519;-74
2022/01/21 08:31:21;;;;;;;8.38;4.38;;;;;;;;;;5006814;28;20037;-74
2022/01/21 08:33:46;;;;;;;13.65;4.40;;;;;;;;;;5006893;28;20553;-74
2022/01/21 08:36:12;;;;;;;10.77;4.40;;;;;;;;;;5005806;28;20050;-73
2022/01/21 08:38:38;;;;;;;17.85;5.90;;;;;;;;;;5009147;28;20062;-74
2022/01/21 08:41:04;;;;;;;10.57;4.47;;;;;;;;;;5009039;28;20084;-73
2022/01/21 08:43:29;;;;;;;14.82;4.95;;;;;;;;;;5009456;28;20261;-74
2022/01/21 08:45:54;;;;;;;13.63;5.40;;;;;;;;;;5009454;28;20034;-73
2022/01/21 08:48:20;;;;;;;11.20;5.50;;;;;;;;;;5005986;28;20037;-73
2022/01/21 08:50:46;;;;;;;17.45;6.35;;;;;;;;;;5007596;28;20022;-73
2022/01/21 08:55:56;;;;;;;12.82;5.32;;;;;;;;;;5003434;28;20084;-74
2022/01/21 08:58:22;;;;;;;15.45;5.53;;;;;;;;;;4989758;28;20380;-74
2022/01/21 09:00:47;;;;;;;24.67;11.82;;;;;;;;;;5019435;22;20053;-78
2022/01/21 09:03:13;;;;;;;31.73;16.48;;;;;;;;;;5010919;28;20257;-78
2022/01/21 09:05:38;;;;;;;20.95;10.95;;;;;;;;;;5010453;28;20034;-78
2022/01/21 09:08:03;;;;;;;18.27;9.23;;;;;;;;;;5010442;28;20030;-78
2022/01/21 09:10:29;;;;;;;14.13;7.75;;;;;;;;;;5001291;28;20018;-78
2022/01/21 09:12:54;;;;;;;11.85;5.63;;;;;;;;;;4988605;28;20026;-76
2022/01/21 09:15:24;;;;;;;14.65;5.30;;;;;;;;;;4988885;28;20023;-78
2022/01/21 09:17:50;;;;;;;12.65;5.88;;;;;;;;;;4989407;28;20387;-77
2022/01/21 09:20:15;;;;;;;9.48;4.97;;;;;;;;;;4988686;28;20033;-78
2022/01/21 09:22:40;;;;;;;9.27;4.78;;;;;;;;;;4992624;28;20027;-78
2022/01/21 09:25:06;;;;;;;12.43;5.25;;;;;;;;;;4990645;28;20508;-77
2022/01/21 09:27:31;;;;;;;18.73;5.40;;;;;;;;;;4991357;28;20022;-79
2022/01/21 09:29:57;;;;;;;13.35;4.70;;;;;;;;;;4992809;28;20085;-79
2022/01/21 09:32:22;;;;;;;11.10;4.60;;;;;;;;;;4992190;28;20034;-79
2022/01/21 09:34:48;;;;;;;13.02;4.85;;;;;;;;;;4991804;28;20049;-78
2022/01/21 09:37:13;;;;;;;11.50;4.28;;;;;;;;;;4991830;28;20030;-77
2022/01/21 09:39:39;;;;;;;9.75;4.53;;;;;;;;;;4990135;28;20057;-78
2022/01/21 09:42:06;;;;;;;12.15;5.00;;;;;;;;;;4988896;28;20034;-78
2022/01/21 09:44:32;;;;;;;13.35;4.22;;;;;;;;;;4989582;28;20438;-77
2022/01/21 09:47:00;;;;;;;13.15;5.07;;;;;;;;;;4992966;28;20381;-77
2022/01/21 09:49:26;;;;;;;7.65;4.35;;;;;;;;;;5001992;28;20033;-76
2022/01/21 09:52:03;;;;;;;35.65;15.02;;;;;;;;;;4996996;28;20026;-78
2022/01/21 09:54:32;;;;;;;15.50;6.90;;;;;;;;;;4995954;28;20037;-77
2022/01/21 09:56:58;;;;;;;7.60;4.00;;;;;;;;;;4989594;28;20034;-76
2022/01/21 09:59:27;;;;;;;19.30;6.18;;;;;;;;;;4988482;28;20038;-76
2022/01/21 10:01:57;;;;;;;18.42;6.47;;;;;;;;;;4989065;28;20041;-78
2022/01/21 10:04:26;;;;;;;17.75;6.90;;;;;;;;;;4991139;28;20026;-78
2022/01/21 10:06:54;;;;;;;10.13;4.13;;;;;;;;;;4990316;28;20108;-79
2022/01/21 10:09:21;;;;;;;14.38;4.78;;;;;;;;;;4991578;28;20026;-78
2022/01/21 10:11:49;;;;;;;16.90;10.45;;;;;;;;;;4988259;28;20299;-77
2022/01/21 10:14:19;;;;;;;13.55;6.70;;;;;;;;;;4986686;28;20034;-77
2022/01/21 10:16:46;;;;;;;9.45;4.35;;;;;;;;;;4987974;28;20028;-77
2022/01/21 10:19:11;;;;;;;10.13;4.97;;;;;;;;;;4988672;28;20106;-77
2022/01/21 10:21:44;;;;;;;7.72;4.40;;;;;;;;;;4987343;28;20105;-76
2022/01/21 10:24:13;;;;;;;8.60;3.47;;;;;;;;;;4987788;28;20034;-76
2022/01/21 10:26:52;;;;;;;8.70;3.55;;;;;;;;;;4988270;28;20041;-77
2022/01/21 10:29:18;;;;;;;7.75;3.60;;;;;;;;;;4988949;28;20038;-75
2022/01/21 10:32:10;;;;;;;6.57;3.17;;;;;;;;;;4988056;28;20026;-78
2022/01/21 10:34:42;;;;;;;6.68;3.30;;;;;;;;;;4988878;28;20392;-77
2022/01/21 10:37:25;;;;;;;7.57;2.80;;;;;;;;;;4991954;28;20038;-78
2022/01/21 10:39:54;;;;;;;;;;;;;;;;;;4995263;28;20030;-77
2022/01/21 10:42:24;;;;;;;6.03;2.78;;;;;;;;;;4995082;28;19913;-79
2022/01/21 10:44:50;;;;;;;6.72;2.70;;;;;;;;;;4993326;28;20412;-79
2022/01/21 10:47:16;;;;;;;6.05;2.70;;;;;;;;;;4991430;28;20026;-78
2022/01/21 10:49:43;;;;;;;4.38;2.45;;;;;;;;;;4991919;28;20037;-79
2022/01/21 10:52:11;;;;;;;4.32;2.30;;;;;;;;;;4991349;28;20387;-79
2022/01/21 10:54:44;;;;;;;6.43;2.50;;;;;;;;;;4989809;28;20365;-76
2022/01/21 10:57:13;;;;;;;5.80;2.47;;;;;;;;;;4987224;28;20181;-78
2022/01/21 10:59:59;;;;;;;4.20;2.35;;;;;;;;;;4989016;28;20034;-79
2022/01/21 11:02:51;;;;;;;4.43;2.38;;;;;;;;;;4984224;28;20076;-79
2022/01/21 11:05:27;;;;;;;6.13;2.50;;;;;;;;;;4992126;28;20026;-78
2022/01/21 11:08:02;;;;;;;4.88;2.40;;;;;;;;;;4989677;28;20058;-78
2022/01/21 11:10:37;;;;;;;5.68;1.90;;;;;;;;;;4988704;28;20026;-78
2022/01/21 11:13:23;;;;;;;7.15;2.25;;;;;;;;;;4987916;28;20042;-79
2022/01/21 11:15:56;;;;;;;5.57;2.05;;;;;;;;;;4988499;28;20038;-78
2022/01/21 11:18:23;;;;;;;5.43;2.10;;;;;;;;;;4988157;28;20248;-78
2022/01/21 11:20:57;;;;;;;6.00;2.28;;;;;;;;;;4987972;28;20030;-78
2022/01/21 11:23:27;;;;;;;5.32;2.20;;;;;;;;;;4987640;28;20022;-78
2022/01/21 11:25:57;;;;;;;3.97;2.20;;;;;;;;;;4970858;28;20035;-77
2022/01/21 11:28:25;;;;;;;4.03;1.90;;;;;;;;;;4968086;28;20050;-77
2022/01/21 11:30:53;;;;;;;5.43;2.17;;;;;;;;;;4966827;28;20050;-77
2022/01/21 11:33:20;;;;;;;5.90;2.80;;;;;;;;;;4967044;28;20027;-77
2022/01/21 11:35:51;;;;;;;6.10;2.10;;;;;;;;;;4987374;28;20061;-77
2022/01/21 11:38:18;;;;;;;6.32;2.47;;;;;;;;;;4986832;28;20033;-77
2022/01/21 11:40:44;;;;;;;5.22;2.35;;;;;;;;;;4986737;28;20033;-78
2022/01/21 11:43:11;;;;;;;4.88;2.10;;;;;;;;;;4986713;28;20500;-77
2022/01/21 11:50:41;;;;;;;6.15;2.60;;;;;;;;;;4988551;28;20034;-79
2022/01/21 11:53:07;;;;;;;4.43;2.30;;;;;;;;;;4987040;28;20343;-78
2022/01/21 11:55:35;;;;;;;4.97;2.13;;;;;;;;;;4987731;28;20030;-79
2022/01/21 11:58:14;;;;;;;9.38;2.70;;;;;;;;;;4986826;28;20018;-78
2022/01/21 12:00:40;;;;;;;5.70;2.50;;;;;;;;;;4986452;28;20105;-78
2022/01/21 12:03:06;;;;;;;3.75;2.35;;;;;;;;;;4987613;28;20034;-79
2022/01/21 12:05:33;;;;;;;3.00;2.00;;;;;;;;;;4989368;28;20047;-79
2022/01/21 12:08:03;;;;;;;4.35;2.13;;;;;;;;;;4986707;28;20022;-79
2022/01/21 12:10:31;;;;;;;4.53;2.38;;;;;;;;;;4993607;28;20044;-79
2022/01/21 12:13:09;;;;;;;3.35;2.13;;;;;;;;;;4996762;28;20018;-79
2022/01/21 12:21:01;;;;;;;4.82;1.83;;;;;;;;;;4997872;28;20109;-79
2022/01/21 12:23:28;;;;;;;5.88;2.20;;;;;;;;;;5004156;28;20025;-79
2022/01/21 12:26:17;;;;;;;2.60;1.63;;;;;;;;;;5014679;28;20033;-78
2022/01/21 12:28:53;;;;;;;4.32;2.03;;;;;;;;;;4977418;28;20103;-78
2022/01/21 12:31:21;;;;;;;3.25;1.60;;;;;;;;;;5006636;28;20032;-78
2022/01/21 12:34:03;;;;;;;4.80;2.50;;;;;;;;;;4997632;28;20030;-78
2022/01/21 12:36:34;;;;;;;5.60;2.33;;;;;;;;;;4999295;28;20105;-78
2022/01/21 12:41:34;;;;;;;3.60;1.83;;;;;;;;;;4997002;28;20065;-78
2022/01/21 12:44:00;;;;;;;2.22;1.50;;;;;;;;;;4995941;28;20030;-78
2022/01/21 12:46:25;;;;;;;2.88;1.48;;;;;;;;;;4997531;28;20138;-78
2022/01/21 12:48:52;;;;;;;2.13;1.92;;;;;;;;;;4997107;28;20030;-78
2022/01/21 12:56:49;;;;;;;2.92;2.40;;;;;;;;;;4997921;28;20114;-78
2022/01/21 12:59:19;;;;;;;8.48;4.50;;;;;;;;;;4997137;28;20539;-78
2022/01/21 13:01:45;;;;;;;17.02;10.38;;;;;;;;;;4996108;28;20411;-79
2022/01/21 13:04:49;;;;;;;11.57;7.10;;;;;;;;;;4991575;28;20026;-78
2022/01/21 13:07:33;;;;;;;6.78;2.95;;;;;;;;;;4989909;28;20103;-78
2022/01/21 13:10:02;;;;;;;7.88;3.03;;;;;;;;;;4982419;28;20094;-78
2022/01/21 13:15:38;;;;;;;3.55;2.30;;;;;;;;;;4966097;28;20041;-78
2022/01/21 13:18:05;;;;;;;3.22;1.98;;;;;;;;;;4994448;28;20049;-80
2022/01/21 13:20:32;;;;;;;3.45;1.88;;;;;;;;;;4994515;28;20089;-79
2022/01/21 13:22:58;;;;;;;3.38;2.15;;;;;;;;;;5003271;28;20023;-79
2022/01/21 13:25:25;;;;;;;4.13;1.92;;;;;;;;;;5012529;28;20033;-79
2022/01/21 13:27:57;;;;;;;2.08;1.70;;;;;;;;;;5009642;28;20054;-81
2022/01/21 13:30:27;;;;;;;1.80;1.60;;;;;;;;;;5000343;28;20106;-80
2022/01/21 13:33:07;;;;;;;3.63;1.67;;;;;;;;;;4999841;28;20034;-80
2022/01/21 13:35:36;;;;;;;4.97;2.83;;;;;;;;;;4998624;28;20026;-80
2022/01/21 13:38:17;;;;;;;6.03;3.35;;;;;;;;;;5001453;28;20026;-81
2022/01/21 13:40:57;;;;;;;3.25;2.65;;;;;;;;;;5015641;28;20038;-81
2022/01/21 13:43:31;;;;;;;3.35;2.35;;;;;;;;;;4999495;28;20089;-81
2022/01/21 13:46:03;;;;;;;3.78;2.60;;;;;;;;;;5000641;28;20105;-80
2022/01/21 13:48:33;;;;;;;3.30;2.88;;;;;;;;;;4997837;28;20050;-81
2022/01/21 13:51:11;;;;;;;9.10;5.22;;;;;;;;;;4998941;28;20030;-82
2022/01/21 13:53:41;;;;;;;7.20;3.00;;;;;;;;;;4999923;28;20559;-82
2022/01/21 13:56:08;;;;;;;3.63;2.30;;;;;;;;;;4999895;28;20034;-81
2022/01/21 13:58:45;;;;;;;2.45;1.55;;;;;;;;;;4996201;28;20018;-81
2022/01/21 14:01:22;;;;;;;2.63;1.65;;;;;;;;;;4993595;28;20072;-82
2022/01/21 14:03:52;;;;;;;2.42;1.65;;;;;;;;;;4985463;28;20108;-80
2022/01/21 14:06:19;;;;;;;1.83;1.45;;;;;;;;;;4994483;28;20042;-81
2022/01/21 14:08:57;;;;;;;6.03;2.25;;;;;;;;;;4995505;28;20034;-80
2022/01/21 14:11:27;;;;;;;2.50;2.00;;;;;;;;;;4996566;28;20026;-82
2022/01/21 14:14:02;;;;;;;3.78;1.50;;;;;;;;;;4994347;28;20045;-81
2022/01/21 14:16:39;;;;;;;2.53;1.70;;;;;;;;;;4994094;28;20041;-78
2022/01/21 14:19:10;;;;;;;5.30;3.28;;;;;;;;;;4988983;28;20018;-78
2022/01/21 14:21:37;;;;;;;2.72;1.95;;;;;;;;;;4991723;28;20026;-79
2022/01/21 14:24:14;;;;;;;3.08;1.70;;;;;;;;;;4989008;28;20061;-78
2022/01/21 14:26:50;;;;;;;1.83;1.60;;;;;;;;;;4987237;28;20380;-78
2022/01/21 14:29:26;;;;;;;2.65;1.80;;;;;;;;;;4988894;28;20022;-78
2022/01/21 14:31:52;;;;;;;3.95;2.17;;;;;;;;;;4991499;28;20445;-79
2022/01/21 14:34:18;;;;;;;3.33;2.10;;;;;;;;;;4987823;28;20030;-78
2022/01/21 14:36:57;;;;;;;2.45;1.70;;;;;;;;;;5004200;28;20073;-78
2022/01/21 14:39:22;;;;;;;3.97;1.92;;;;;;;;;;4988473;28;20371;-78
2022/01/21 14:41:54;;;;;;;2.45;1.88;;;;;;;;;;4989083;28;20026;-78
2022/01/21 14:44:42;;;;;;;1.85;1.63;;;;;;;;;;4987900;28;20026;-78
2022/01/21 14:47:18;;;;;;;2.95;1.60;;;;;;;;;;4968054;28;20125;-79
2022/01/21 14:49:57;;;;;;;8.30;5.88;;;;;;;;;;4987601;28;20507;-78
2022/01/21 14:52:45;;;;;;;1.75;1.63;;;;;;;;;;4988670;28;20034;-78
2022/01/21 14:55:26;;;;;;;2.35;1.88;;;;;;;;;;4987616;28;20030;-78
2022/01/21 14:57:58;;;;;;;3.83;1.88;;;;;;;;;;4988542;28;20018;-78
2022/01/21 15:00:32;;;;;;;4.95;1.92;;;;;;;;;;4985596;28;20028;-77
2022/01/21 15:03:06;;;;;;;3.17;2.03;;;;;;;;;;4984696;28;20030;-77
2022/01/21 15:05:32;;;;;;;5.90;2.83;;;;;;;;;;4986768;28;20096;-77
2022/01/21 15:07:58;;;;;;;2.75;1.85;;;;;;;;;;4989176;28;20034;-77
2022/01/21 15:10:45;;;;;;;2.38;1.70;;;;;;;;;;4988962;28;20034;-77
2022/01/21 15:16:20;;;;;;;5.28;2.63;;;;;;;;;;4990129;28;20033;-77
2022/01/21 15:18:52;;;;;;;4.63;2.40;;;;;;;;;;4990488;28;20026;-77
2022/01/21 15:21:24;;;;;;;4.85;2.65;;;;;;;;;;4978715;28;20035;-77
2022/01/21 15:23:51;;;;;;;6.65;3.20;;;;;;;;;;4977040;28;20100;-77
2022/01/21 15:26:20;;;;;;;4.55;2.80;;;;;;;;;;4992690;28;20046;-76
2022/01/21 15:28:48;;;;;;;3.83;2.60;;;;;;;;;;4989773;28;20034;-77
2022/01/21 15:31:14;;;;;;;2.97;2.13;;;;;;;;;;4995088;28;20018;-77
2022/01/21 15:33:39;;;;;;;6.50;2.42;;;;;;;;;;4999840;28;20029;-77
2022/01/21 15:36:05;;;;;;;4.57;2.60;;;;;;;;;;4989010;28;20019;-77
2022/01/21 15:38:30;;;;;;;7.47;3.15;;;;;;;;;;4988185;28;20049;-76
2022/01/21 15:40:56;;;;;;;4.50;2.65;;;;;;;;;;4989454;28;20026;-77
2022/01/21 15:43:22;;;;;;;2.42;2.20;;;;;;;;;;5004155;28;20528;-77
2022/01/21 15:45:47;;;;;;;2.92;2.28;;;;;;;;;;4988415;28;20037;-77
2022/01/21 15:48:14;;;;;;;3.85;2.55;;;;;;;;;;4988680;28;20026;-77
2022/01/21 15:50:40;;;;;;;1.92;1.70;;;;;;;;;;4989638;28;20022;-77
2022/01/21 15:53:06;;;;;;;4.47;2.28;;;;;;;;;;4990041;28;20469;-77
2022/01/21 15:55:31;;;;;;;3.17;2.00;;;;;;;;;;4989442;28;20053;-76
2022/01/21 15:57:56;;;;;;;5.20;2.25;;;;;;;;;;4989895;28;20030;-77
2022/01/21 16:00:22;;;;;;;3.08;2.50;;;;;;;;;;5003302;28;20021;-77
2022/01/21 16:02:49;;;;;;;7.53;2.22;;;;;;;;;;4998710;28;20034;-77
2022/01/21 16:05:15;;;;;;;3.78;2.20;;;;;;;;;;4989382;28;20557;-76